createdAt,value
2023-08-11T00:01:17.477Z,51.23
2023-08-11T00:03:44.300Z,51.21
2023-08-11T00:06:10.858Z,51.48
2023-08-11T00:08:37.593Z,51.03
2023-08-11T00:11:04.177Z,51.42
2023-08-11T00:13:30.757Z,51.35
2023-08-11T00:15:57.393Z,50.95
2023-08-11T00:18:24.328Z,51.35
2023-08-11T00:20:51.031Z,51.15
2023-08-11T00:23:17.608Z,51.43
2023-08-11T00:25:44.239Z,51.23
2023-08-11T00:28:10.775Z,51.35
2023-08-11T00:30:37.390Z,51.46
2023-08-11T00:33:04.018Z,51.40
2023-08-11T00:35:30.639Z,51.18
2023-08-11T00:37:57.504Z,51.05
2023-08-11T00:40:24.111Z,51.22
2023-08-11T00:42:50.808Z,51.02
2023-08-11T00:45:17.428Z,50.96
2023-08-11T00:47:44.121Z,51.23
2023-08-11T00:50:10.800Z,50.99
2023-08-11T00:52:37.470Z,51.27
2023-08-11T00:55:04.142Z,51.42
2023-08-11T00:57:30.760Z,51.63
2023-08-11T00:59:57.639Z,51.17
2023-08-11T01:02:24.325Z,51.20
2023-08-11T01:04:50.885Z,50.89
2023-08-11T01:07:17.447Z,51.35
2023-08-11T01:09:43.996Z,51.07
2023-08-11T01:12:10.615Z,50.71
2023-08-11T01:14:37.236Z,51.14
2023-08-11T01:17:03.941Z,50.63
2023-08-11T01:19:30.586Z,51.20
2023-08-11T01:21:57.183Z,51.18
2023-08-11T01:24:23.806Z,51.21
2023-08-11T01:26:50.360Z,51.29
2023-08-11T01:29:17.000Z,51.72
2023-08-11T01:31:46.663Z,51.89
2023-08-11T01:34:13.341Z,51.47
2023-08-11T01:36:39.932Z,51.71
2023-08-11T01:39:06.613Z,51.80
2023-08-11T01:41:33.161Z,51.59
2023-08-11T01:43:59.712Z,51.68
2023-08-11T01:46:26.363Z,51.65
2023-08-11T01:48:53.021Z,51.64
2023-08-11T01:51:19.678Z,51.69
2023-08-11T01:53:46.295Z,51.54
2023-08-11T01:56:12.887Z,50.99
2023-08-11T01:58:39.430Z,51.10
2023-08-11T02:01:06.042Z,51.37
2023-08-11T02:03:32.763Z,51.43
2023-08-11T02:05:59.437Z,51.60
2023-08-11T02:08:26.087Z,51.52
2023-08-11T02:10:52.636Z,52.07
2023-08-11T02:13:19.255Z,51.71
2023-08-11T02:15:45.909Z,51.61
2023-08-11T02:18:12.500Z,51.66
2023-08-11T02:20:39.150Z,51.68
2023-08-11T02:23:05.787Z,51.44
2023-08-11T02:25:32.373Z,51.54
2023-08-11T02:27:59.039Z,51.40
2023-08-11T02:30:25.620Z,51.78
2023-08-11T02:32:52.279Z,51.98
2023-08-11T02:35:19.190Z,51.87
2023-08-11T02:37:45.832Z,51.74
2023-08-11T02:40:12.450Z,51.41
2023-08-11T02:42:39.030Z,51.66
2023-08-11T02:45:05.810Z,52.04
2023-08-11T02:47:32.511Z,51.69
2023-08-11T02:49:59.134Z,51.91
2023-08-11T02:52:25.733Z,51.79
2023-08-11T02:54:52.364Z,52.28
2023-08-11T02:57:18.966Z,51.97
2023-08-11T02:59:45.565Z,52.06
2023-08-11T03:02:12.365Z,51.77
2023-08-11T03:04:39.011Z,51.73
2023-08-11T03:07:05.627Z,51.74
2023-08-11T03:09:32.280Z,52.06
2023-08-11T03:11:58.814Z,51.52
2023-08-11T03:14:26.427Z,51.58
2023-08-11T03:16:53.076Z,51.66
2023-08-11T03:19:19.672Z,51.42
2023-08-11T03:21:46.307Z,51.62
2023-08-11T03:24:14.626Z,51.61
2023-08-11T03:26:41.480Z,51.54
2023-08-11T03:29:08.045Z,51.49
2023-08-11T03:31:34.718Z,51.75
2023-08-11T03:34:01.317Z,51.78
2023-08-11T03:36:29.030Z,52.04
2023-08-11T03:38:55.622Z,52.51
2023-08-11T03:41:22.226Z,51.82
2023-08-11T03:43:48.838Z,51.73
2023-08-11T03:46:15.494Z,51.88
2023-08-11T03:48:42.133Z,52.09
2023-08-11T03:51:08.753Z,52.15
2023-08-11T03:53:35.395Z,52.59
2023-08-11T03:56:02.043Z,52.38
2023-08-11T03:58:28.631Z,52.11
2023-08-11T04:00:55.329Z,52.14
2023-08-11T04:03:22.077Z,51.95
2023-08-11T04:05:48.778Z,52.31
2023-08-11T04:08:15.388Z,52.58
2023-08-11T04:10:41.988Z,51.94
2023-08-11T04:13:11.570Z,52.12
2023-08-11T04:15:38.187Z,52.16
2023-08-11T04:18:04.963Z,52.17
2023-08-11T04:20:31.531Z,51.97
2023-08-11T04:22:58.149Z,51.94
2023-08-11T04:25:24.752Z,51.66
2023-08-11T04:27:51.465Z,52.17
2023-08-11T04:30:18.028Z,51.79
2023-08-11T04:32:44.795Z,51.62
2023-08-11T04:35:11.486Z,51.74
2023-08-11T04:37:38.122Z,51.57
2023-08-11T04:40:04.757Z,52.04
2023-08-11T04:42:31.279Z,51.71
2023-08-11T04:44:58.000Z,51.60
2023-08-11T04:47:24.573Z,51.64
2023-08-11T04:49:51.248Z,52.15
2023-08-11T04:52:17.851Z,52.13
2023-08-11T04:54:44.500Z,52.08
2023-08-11T04:57:11.089Z,52.44
2023-08-11T04:59:37.756Z,52.14
2023-08-11T05:02:04.380Z,52.71
2023-08-11T05:04:31.032Z,52.46
2023-08-11T05:06:57.643Z,52.05
2023-08-11T05:09:27.113Z,52.47
2023-08-11T05:11:53.773Z,52.59
2023-08-11T05:14:20.476Z,52.05
2023-08-11T05:16:47.029Z,52.20
2023-08-11T05:19:13.575Z,52.23
2023-08-11T05:21:40.171Z,53.09
2023-08-11T05:24:06.687Z,52.50
2023-08-11T05:26:33.306Z,51.92
2023-08-11T05:29:00.039Z,52.37
2023-08-11T05:31:26.863Z,52.28
2023-08-11T05:33:53.464Z,52.29
2023-08-11T05:36:20.032Z,52.27
2023-08-11T05:38:46.686Z,52.47
2023-08-11T05:41:13.305Z,52.45
2023-08-11T05:43:39.885Z,51.98
2023-08-11T05:46:06.521Z,52.01
2023-08-11T05:48:33.218Z,52.19
2023-08-11T05:50:59.871Z,52.13
2023-08-11T05:53:26.452Z,52.41
2023-08-11T05:55:53.028Z,51.99
2023-08-11T05:58:19.560Z,52.35
2023-08-11T06:00:46.114Z,51.86
2023-08-11T06:03:12.752Z,52.00
2023-08-11T06:05:39.377Z,51.85
2023-08-11T06:08:07.136Z,52.28
2023-08-11T06:10:33.885Z,51.80
2023-08-11T06:13:00.553Z,52.01
2023-08-11T06:15:27.141Z,52.41
2023-08-11T06:17:53.800Z,52.75
2023-08-11T06:20:30.149Z,52.27
2023-08-11T06:23:02.050Z,52.38
2023-08-11T15:07:00.099Z,39.26
2023-08-11T15:09:26.712Z,38.30
2023-08-11T15:11:53.309Z,38.38
2023-08-11T15:14:19.971Z,38.11
2023-08-11T15:16:46.921Z,37.61
2023-08-11T15:19:16.565Z,37.66
2023-08-11T15:21:43.205Z,37.51
2023-08-11T15:24:09.823Z,37.59
2023-08-11T15:26:36.485Z,37.73
2023-08-11T15:29:03.135Z,37.28
2023-08-11T15:31:29.775Z,37.67
2023-08-11T15:33:56.413Z,38.31
2023-08-11T15:36:24.200Z,38.54
2023-08-11T15:38:50.874Z,39.08
2023-08-11T15:41:17.580Z,39.35
2023-08-11T15:43:44.451Z,39.68
2023-08-11T15:46:11.161Z,39.62
2023-08-11T15:48:37.793Z,38.72
2023-08-11T15:51:04.693Z,39.25
2023-08-11T15:53:31.602Z,39.26
2023-08-11T15:55:58.421Z,38.94
2023-08-11T15:58:25.148Z,38.78
2023-08-11T16:00:51.716Z,38.82
2023-08-11T16:03:18.484Z,38.28
2023-08-11T16:05:45.180Z,37.74
2023-08-11T16:08:11.793Z,37.46
2023-08-11T16:10:38.351Z,37.38
2023-08-11T16:13:04.953Z,37.17
2023-08-11T16:15:31.627Z,36.57
2023-08-11T16:17:58.225Z,36.48
2023-08-11T16:20:24.891Z,36.73
2023-08-11T16:22:51.559Z,36.76
2023-08-11T16:25:18.102Z,36.27
2023-08-11T16:27:44.746Z,35.75
2023-08-11T16:30:11.397Z,35.47
2023-08-11T16:32:38.398Z,35.41
2023-08-11T16:35:05.012Z,35.21
2023-08-11T16:37:31.639Z,35.00
2023-08-11T16:39:58.204Z,34.86
2023-08-11T16:42:24.819Z,35.21
2023-08-11T16:44:56.365Z,34.68
2023-08-11T16:47:22.995Z,34.85
2023-08-11T16:49:49.621Z,35.14
2023-08-11T16:52:16.187Z,36.28
2023-08-11T16:54:42.747Z,35.24
2023-08-11T16:57:09.325Z,34.99
2023-08-11T16:59:35.942Z,35.48
2023-08-11T17:02:02.560Z,35.44
2023-08-11T17:04:29.177Z,35.60
2023-08-11T17:06:59.161Z,35.47
2023-08-11T17:09:25.912Z,35.77
2023-08-11T17:11:52.491Z,35.10
2023-08-11T17:14:19.038Z,35.46
2023-08-11T17:16:45.674Z,35.47
2023-08-11T17:33:20.576Z,34.27
2023-08-11T17:35:47.171Z,33.87
2023-08-11T17:38:13.768Z,33.93
2023-08-11T17:40:40.357Z,34.20
2023-08-11T17:43:07.108Z,34.36
2023-08-11T17:45:33.820Z,33.95
2023-08-11T17:48:00.557Z,34.22
2023-08-11T17:50:27.176Z,34.18
2023-08-11T17:52:53.776Z,34.11
2023-08-11T17:55:20.329Z,34.64
2023-08-11T17:57:46.948Z,34.56
2023-08-11T18:00:13.634Z,34.53
2023-08-11T18:02:41.991Z,34.39
2023-08-11T18:05:09.365Z,34.41
2023-08-11T18:07:35.909Z,34.72
2023-08-11T18:10:02.438Z,34.80
2023-08-11T18:12:28.988Z,35.72
2023-08-11T18:14:55.585Z,35.69
2023-08-11T18:17:22.267Z,36.08
2023-08-11T18:19:48.886Z,36.19
2023-08-11T18:22:15.566Z,36.41
2023-08-11T18:24:42.254Z,36.35
2023-08-11T18:27:08.872Z,34.93
2023-08-11T18:29:35.524Z,35.26
2023-08-11T18:32:02.139Z,35.79
2023-08-11T18:34:28.690Z,35.98
2023-08-11T18:36:55.309Z,36.25
2023-08-11T18:39:21.917Z,36.50
2023-08-11T18:41:48.528Z,36.44
2023-08-11T18:44:15.158Z,34.74
2023-08-11T18:52:09.802Z,35.13
2023-08-11T18:54:36.690Z,35.34
2023-08-11T18:57:03.273Z,35.36
2023-08-11T18:59:29.838Z,36.51
2023-08-11T19:01:56.409Z,36.63
2023-08-11T19:04:22.949Z,36.51
2023-08-11T19:06:49.562Z,36.87
2023-08-11T19:09:16.275Z,37.10
2023-08-11T19:11:42.849Z,37.90
2023-08-11T19:14:09.463Z,38.08
2023-08-11T19:16:36.197Z,39.98
2023-08-11T19:19:02.778Z,40.31
2023-08-11T19:21:29.379Z,39.89
2023-08-11T19:23:55.980Z,39.30
2023-08-11T19:26:22.621Z,38.84
2023-08-11T19:28:50.153Z,39.11
2023-08-11T19:31:20.058Z,39.25
2023-08-11T19:33:46.849Z,38.94
2023-08-11T19:36:13.508Z,38.85
2023-08-11T19:38:40.102Z,38.92
2023-08-11T19:41:06.786Z,38.89
2023-08-11T19:43:33.427Z,38.86
2023-08-11T19:45:59.979Z,39.17
2023-08-11T19:48:26.608Z,39.16
2023-08-11T19:50:53.218Z,39.32
2023-08-11T19:53:19.883Z,38.98
2023-08-11T19:55:46.570Z,38.90
2023-08-11T19:58:13.310Z,39.21
2023-08-11T20:00:39.949Z,41.10
2023-08-11T20:03:08.360Z,41.08
2023-08-11T20:05:35.153Z,41.31
2023-08-11T20:08:01.836Z,41.03
2023-08-11T20:10:28.456Z,41.40
2023-08-11T20:12:55.089Z,41.20
2023-08-11T20:15:21.719Z,41.29
2023-08-11T20:17:48.423Z,41.71
2023-08-11T20:20:15.051Z,41.74
2023-08-11T20:22:41.643Z,41.68
2023-08-11T20:25:08.295Z,41.86
2023-08-11T20:27:34.852Z,42.18
2023-08-11T20:30:01.460Z,42.08
2023-08-11T20:32:28.202Z,42.25
2023-08-11T20:34:54.842Z,42.15
2023-08-11T20:37:21.538Z,42.25
2023-08-11T20:39:48.146Z,42.31
2023-08-11T20:42:14.743Z,42.29
2023-08-11T20:44:41.334Z,42.88
2023-08-11T20:47:08.093Z,42.63
2023-08-11T20:49:34.776Z,42.90
2023-08-11T20:52:01.379Z,42.39
2023-08-11T20:54:28.025Z,42.64
2023-08-11T20:56:54.597Z,42.45
2023-08-11T20:59:21.204Z,42.87
2023-08-11T21:01:47.857Z,42.57
2023-08-11T21:04:14.537Z,42.63
2023-08-11T21:06:41.103Z,42.40
2023-08-11T21:09:09.576Z,42.27
2023-08-11T21:11:36.160Z,42.94
2023-08-11T21:14:02.758Z,42.97
2023-08-11T21:16:29.424Z,42.94
2023-08-11T21:18:56.031Z,43.04
2023-08-11T21:21:22.686Z,43.24
2023-08-11T21:23:49.314Z,43.64
2023-08-11T21:26:15.900Z,43.90
2023-08-11T21:28:42.551Z,43.61
2023-08-11T21:31:17.736Z,43.08
2023-08-11T21:33:45.095Z,43.84
2023-08-11T21:36:11.724Z,43.57
2023-08-11T21:38:38.406Z,43.79
2023-08-11T21:41:05.088Z,44.33
2023-08-11T21:43:31.696Z,45.16
2023-08-11T21:45:58.236Z,46.00
2023-08-11T21:48:24.904Z,46.27
2023-08-11T21:50:51.489Z,46.01
2023-08-11T21:53:23.434Z,45.83
2023-08-11T21:55:50.430Z,46.58
2023-08-11T21:58:17.076Z,46.81
2023-08-11T22:00:43.724Z,46.25
2023-08-11T22:03:10.404Z,46.72
2023-08-11T22:05:37.055Z,47.11
2023-08-11T22:08:03.665Z,46.67
2023-08-11T22:10:30.280Z,47.33
2023-08-11T22:12:56.989Z,47.26
2023-08-11T22:15:23.631Z,47.40
2023-08-11T22:17:50.307Z,47.36
2023-08-11T22:20:16.938Z,47.18
2023-08-11T22:22:43.536Z,47.17
2023-08-11T22:25:10.299Z,47.27
2023-08-11T22:27:36.893Z,47.11
2023-08-11T22:30:03.542Z,47.20
2023-08-11T22:32:30.300Z,47.26
2023-08-11T22:34:57.170Z,47.17
2023-08-11T22:37:23.797Z,46.91
2023-08-11T22:39:50.402Z,46.83
2023-08-11T22:42:17.015Z,47.19
2023-08-11T22:44:43.633Z,46.87
2023-08-11T22:47:10.406Z,47.18
2023-08-11T22:49:37.306Z,47.10
2023-08-11T22:52:03.911Z,47.00
2023-08-11T22:54:30.593Z,47.12
2023-08-11T22:56:57.178Z,46.96
2023-08-11T22:59:23.810Z,46.79
2023-08-11T23:01:50.491Z,46.97
2023-08-11T23:04:17.147Z,47.36
2023-08-11T23:06:43.801Z,47.32
2023-08-11T23:09:10.362Z,47.28
2023-08-11T23:11:37.070Z,47.33
2023-08-11T23:14:03.707Z,47.08
2023-08-11T23:16:30.484Z,47.17
2023-08-11T23:18:57.093Z,47.29
2023-08-11T23:21:23.746Z,47.45
2023-08-11T23:23:53.117Z,47.13
2023-08-11T23:26:19.775Z,47.56
2023-08-11T23:28:46.425Z,47.41
2023-08-11T23:31:13.088Z,47.47
2023-08-11T23:33:39.770Z,47.27
2023-08-11T23:36:06.382Z,47.44
2023-08-11T23:38:33.009Z,47.42
2023-08-11T23:40:59.629Z,47.29
2023-08-11T23:43:26.260Z,47.47
2023-08-11T23:45:52.918Z,47.50
2023-08-11T23:48:19.611Z,47.60
2023-08-11T23:50:46.315Z,47.90
2023-08-11T23:53:12.929Z,48.11
2023-08-11T23:55:39.631Z,47.67
2023-08-11T23:58:06.288Z,48.30
